CSUN New Campus Station -PST Time - Most Recent Data on bottom of page




           Date/Time      Avg      Avg      Max     Wind      Avg      Max      Min      Avg      Avg    Total      Avg     Batt
                         Wind     Wind     Wind      Dir     Temp     Temp     Temp       RH      Bar     Rain    Solar     Volt
                      Spd MPH      Dir  Spd MPH   at Max    Deg_F    Deg_F    Deg_F        % Press_mb   Inches     W/m2      Min
--------------------------------------------------------------------------------------------------------------------------------
    11/23/2014 00:00      5.2      320     17.6      339     63.8     64.5     62.1       47     1015     0.00        0     13.4
    11/23/2014 00:15      7.8      333     24.5      337     63.9     64.4     63.6       46     1015     0.00        0     13.4
    11/23/2014 00:30      6.7      337     25.3      315     63.6     64.0     63.1       46     1015     0.00        0     13.4
    11/23/2014 00:45      7.2      339     23.9        5     63.3     63.5     63.0       45     1016     0.00        0     13.4
    11/23/2014 01:00      6.7      318     23.5      335     63.0     63.3     62.6       44     1016     0.00        0     13.4
    11/23/2014 01:15      6.7      309     23.2      351     62.9     63.1     62.6       44     1015     0.00        0     13.4
    11/23/2014 01:30      8.9      332     26.8      324     62.9     63.1     62.6       43     1015     0.00        0     13.4
    11/23/2014 01:45      9.1      335     26.1      352     62.7     63.0     62.3       44     1015     0.00        0     13.4
    11/23/2014 02:00      8.2      337     23.2       90     62.5     62.8     62.2       43     1015     0.00        0     13.4
    11/23/2014 02:15      9.8      327     25.0        5     62.9     63.2     62.5       42     1015     0.00        0     13.4
    11/23/2014 02:30      5.8      336     15.4      325     62.5     62.8     62.3       44     1016     0.00        0     13.4
    11/23/2014 02:45      3.8        1     11.8      341     62.1     62.5     61.7       44     1016     0.00        0     13.4
    11/23/2014 03:00      7.0      331     21.5      344     61.9     62.1     61.7       45     1017     0.00        0     13.4
    11/23/2014 03:15      8.1      315     20.1      312     61.7     62.1     61.4       46     1016     0.00        0     13.4
    11/23/2014 03:30      9.4      319     33.1      292     61.5     61.7     61.2       46     1016     0.00        0     13.4
    11/23/2014 03:45      9.0      324     25.7      305     61.3     61.6     61.0       44     1016     0.00        0     13.4
    11/23/2014 04:00      6.1       11     21.0        2     61.3     61.5     61.0       44     1016     0.00        0     13.4
    11/23/2014 04:15      7.1        9     24.5      340     61.3     61.5     60.9       44     1016     0.00        0     13.4
    11/23/2014 04:30      8.8      343     26.0       15     61.3     61.5     61.0       45     1017     0.00        0     13.4
    11/23/2014 04:45      8.3      349     21.9      343     61.1     61.4     60.9       45     1017     0.00        0     13.4
    11/23/2014 05:00      4.7      346     16.1      338     60.9     61.1     60.6       46     1017     0.00        0     13.4
    11/23/2014 05:15      7.7      349     19.6      343     60.8     61.1     60.6       46     1017     0.00        0     13.4
    11/23/2014 05:30      7.8      350     20.1      337     60.9     61.2     60.6       46     1017     0.00        0     13.4
    11/23/2014 05:45      8.8      348     22.8      348     60.9     61.1     60.6       46     1017     0.00        0     13.4
    11/23/2014 06:00      6.5      352     15.7       45     60.7     60.9     60.3       46     1018     0.00        0     13.4
    11/23/2014 06:15      4.8      350     12.4      350     60.3     60.7     60.0       46     1018     0.00        0     13.4
    11/23/2014 06:30      5.2      341     13.6        4     60.4     60.6     60.1       46     1019     0.00        1     13.4
    11/23/2014 06:45      4.8      341     13.2      337     60.4     60.6     60.0       46     1019     0.00        4     13.4
    11/23/2014 07:00      4.8      339     13.5      336     60.3     60.6     60.0       46     1019     0.00       21     13.4
    11/23/2014 07:15      3.7      346     10.2      341     60.1     60.5     59.9       46     1019     0.00       36     13.4
    11/23/2014 07:30      5.1      336     12.1      336     60.3     60.5     60.0       46     1019     0.00       40     13.4
    11/23/2014 07:45      3.9      336      9.3      346     60.5     61.0     60.2       45     1020     0.00       60     13.4
    11/23/2014 08:00      3.7      334      9.0      325     61.2     61.5     60.8       43     1020     0.00       55     13.4
    11/23/2014 08:15      2.5      322      6.9      340     61.6     62.1     61.2       41     1020     0.00       52     13.4
    11/23/2014 08:30      3.8      320     10.2        0     62.8     63.7     61.9       34     1020     0.00       83     13.4
    11/23/2014 08:45      4.0      335     11.8      333     64.2     64.9     63.6       32     1021     0.00      127     13.4
    11/23/2014 09:00      3.7      340     10.4      349     65.0     65.2     64.7       30     1021     0.00      210     13.3
    11/23/2014 09:15      5.0      350     12.2      331     65.9     66.7     65.0       25     1021     0.00      192     13.3
    11/23/2014 09:30      4.0        1     12.0      352     67.0     67.2     66.5       21     1021     0.00      260     13.3
    11/23/2014 09:45      5.0        1     13.7      286     67.3     67.8     66.8       16     1021     0.00      327     13.3
    11/23/2014 10:00      6.9        7     18.9      344     67.7     68.0     67.4       16     1021     0.00      352     13.3
    11/23/2014 10:15     10.1      359     25.1      329     67.8     68.1     67.5       15     1020     0.00      468     13.3
    11/23/2014 10:30     10.0      356     30.7      345     68.4     69.0     67.8       15     1020     0.00      503     13.2
    11/23/2014 10:45     10.9      356     22.2      337     68.7     69.0     68.4       15     1020     0.00      482     13.2
    11/23/2014 11:00     11.2      356     24.3      351     69.4     69.9     68.8       13     1020     0.00      500     13.2
    11/23/2014 11:15     10.7      351     24.2      332     69.7     70.0     69.2       12     1019     0.00      506     13.2
    11/23/2014 11:30     11.8      353     22.1      352     70.1     70.6     69.5       12     1019     0.00      543     13.2
    11/23/2014 11:45     11.5      359     24.4       18     70.9     71.2     70.5       11     1019     0.00      588     13.2
    11/23/2014 12:00     10.9        7     24.4       21     71.1     71.5     70.7       11     1019     0.00      597     13.2
    11/23/2014 12:15     10.4       11     25.1      338     71.3     71.7     70.8       11     1018     0.00      592     13.2
    11/23/2014 12:30      9.2       21     22.1        9     71.5     72.1     71.2       10     1018     0.00      580     13.2
    11/23/2014 12:45     10.1        9     22.7      341     71.9     72.3     71.5       10     1018     0.00      569     13.2
    11/23/2014 13:00      9.1       27     21.5      348     71.9     72.3     71.7        9     1018     0.00      553     13.2
    11/23/2014 13:15      9.2       33     23.6       36     72.0     72.5     71.5        9     1018     0.00      534     13.2
    11/23/2014 13:30      7.8       17     20.4       32     72.4     72.8     72.0        9     1018     0.00      504     13.2
    11/23/2014 13:45      8.5       17     20.2        4     72.6     72.8     72.3        9     1018     0.00      479     13.2
    11/23/2014 14:00     10.8        5     25.7        5     72.5     73.0     72.2        9     1018     0.00      460     13.2
    11/23/2014 14:15     10.0        4     22.2        1     72.2     72.6     71.9        8     1018     0.00      391     13.2
    11/23/2014 14:30      6.7       11     19.7      345     72.1     72.3     71.7        9     1018     0.00      239     13.2
    11/23/2014 14:45      6.6       20     20.8        0     71.6     71.8     71.3        8     1018     0.00      199     13.2
    11/23/2014 15:00      8.0       17     22.8        0     71.7     71.9     71.3        8     1018     0.00      225     13.2
    11/23/2014 15:15      7.5       16     21.3       40     71.5     71.8     71.3        8     1018     0.00      222     13.2
    11/23/2014 15:30      6.3       16     16.4       -1     71.6     71.8     71.3        8     1018     0.00      238     13.2
    11/23/2014 15:45      5.8       16     17.7        9     71.6     71.9     71.3        8     1018     0.00      202     13.2
    11/23/2014 16:00      8.4       17     20.4       25     71.1     71.4     70.8        8     1018     0.00      144     13.2
    11/23/2014 16:15      7.3        6     20.0        9     70.7     71.1     70.2        8     1018     0.00       73     13.2
    11/23/2014 16:30      7.8      354     20.2        0     69.9     70.3     69.6        8     1019     0.00       27     13.2
    11/23/2014 16:45      7.0      359     17.7      344     69.5     69.9     69.1        8     1019     0.00       13     13.3
    11/23/2014 17:00      5.7      358     14.5      330     68.9     69.4     68.4        8     1018     0.00        3     13.3
    11/23/2014 17:15      4.3      354     17.8      344     68.3     68.7     67.9        8     1018     0.00        1     13.3
    11/23/2014 17:30      4.8      360     14.3       10     68.0     68.3     67.6        8     1018     0.00        0     13.3
    11/23/2014 17:45      4.6      344     14.5       15     68.0     68.3     67.5        8     1018     0.00        0     13.3
    11/23/2014 18:00      5.1      345     13.5      333     67.5     67.8     67.2        9     1019     0.00        0     13.3
    11/23/2014 18:15      4.5      337     11.8      347     67.4     67.7     66.9        9     1019     0.00        0     13.3
    11/23/2014 18:30      0.6      296      5.0      289     66.5     67.1     66.0       10     1019     0.00        0     13.3
    11/23/2014 18:45      1.1      326      9.7       45     65.5     66.2     65.0        9     1019     0.00        0     13.3
    11/23/2014 19:00      2.0       94      6.1       94     65.6     66.1     64.8       10     1019     0.00        0     13.4
    11/23/2014 19:15      1.8      111      6.8      119     64.5     65.0     63.5       11     1019     0.00        0     13.4
    11/23/2014 19:30      2.1       74      6.0       54     65.1     66.0     63.6       10     1019     0.00        0     13.4
    11/23/2014 19:45      2.7       67     12.9       33     65.9     66.5     65.1        9     1019     0.00        0     13.4
    11/23/2014 20:00      3.3       99      8.1       66     66.0     66.4     65.5        9     1020     0.00        0     13.4
    11/23/2014 20:15      3.5       53      8.8       30     65.6     66.1     64.9       10     1020     0.00        0     13.4
    11/23/2014 20:30      3.3        3     14.3      337     65.4     66.1     64.7        9     1020     0.00        0     13.4
    11/23/2014 20:45      2.7      359      9.9      354     65.2     65.5     64.8        9     1020     0.00        0     13.4
    11/23/2014 21:00      4.4      346     13.9      338     66.1     66.6     65.1        8     1020     0.00        0     13.4
    11/23/2014 21:15      4.0       19     13.5      347     66.2     66.7     65.9        8     1020     0.00        0     13.4
    11/23/2014 21:30      3.9       43      8.9       58     65.6     66.1     64.9        9     1020     0.00        0     13.4
    11/23/2014 21:45      1.5       59      4.9       35     64.0     65.1     63.3       11     1020     0.00        0     13.4
    11/23/2014 22:00      0.8      165      5.4      275     63.0     64.2     61.7       11     1020     0.00        0     13.4
    11/23/2014 22:15      0.3       18      2.6      240     60.5     62.1     59.6       13     1020     0.00        0     13.4
    11/23/2014 22:30      0.4      143      3.0      150     59.7     60.2     59.2       13     1020     0.00        0     13.4
    11/23/2014 22:45      1.4      125      4.3      149     59.6     60.0     59.3       12     1020     0.00        0     13.4
    11/23/2014 23:00      2.5      166      8.2      184     61.4     62.5     59.7       12     1020     0.00        0     13.4
    11/23/2014 23:15      1.5      173      5.0      194     60.4     61.3     59.7       12     1020     0.00        0     13.4
    11/23/2014 23:30      1.0       98      6.0       85     61.0     61.8     60.5       12     1020     0.00        0     13.4
    11/23/2014 23:45      0.8      136      4.4        9     60.9     61.8     60.3       11     1020     0.00        0     13.4
    11/24/2014 00:00      0.8      260      3.9       18     61.5     61.8     61.1       11     1020     0.00        0     13.4
    11/24/2014 00:15      0.7      143      4.3      163     61.7     62.3     61.3       12     1020     0.00        0     13.4
    11/24/2014 00:30      3.6      330     12.4      341     62.7     63.7     61.2       10     1020     0.00        0     13.4
    11/24/2014 00:45      6.0      339     17.2      351     63.3     63.9     62.8       11     1020     0.00        0     13.4
    11/24/2014 01:00      6.7      339     15.4      341     62.8     63.0     62.6       11     1020     0.00        0     13.4
    11/24/2014 01:15      6.6      338     15.7       28     63.0     63.2     62.7       11     1020     0.00        0     13.4
    11/24/2014 01:30      5.1      347     13.1      330     62.8     62.9     62.6       11     1020     0.00        0     13.4
    11/24/2014 01:45      3.9      342     11.4      332     62.5     62.8     62.2       11     1020     0.00        0     13.4
    11/24/2014 02:00      6.0      334     17.0      339     62.8     63.3     62.4       11     1020     0.00        0     13.4
    11/24/2014 02:15      5.7      342     16.8      332     62.8     63.3     62.5       11     1020     0.00        0     13.4
    11/24/2014 02:30      5.2      341     14.4      336     63.2     63.6     62.8       12     1020     0.00        0     13.4
    11/24/2014 02:45      4.9       55     10.5       28     62.6     63.4     61.5       12     1020     0.00        0     13.4
    11/24/2014 03:00      5.4        7     19.2      347     62.0     62.8     61.2       13     1020     0.00        0     13.4
    11/24/2014 03:15      8.1      343     20.5      333     62.6     62.9     62.2       14     1020     0.00        0     13.4
    11/24/2014 03:30      9.1      337     20.6      329     61.7     62.4     61.3       15     1020     0.00        0     13.4
    11/24/2014 03:45      9.6      341     19.6      333     61.4     61.8     61.1       15     1020     0.00        0     13.4
    11/24/2014 04:00      8.3      340     19.2       16     61.0     61.4     60.6       15     1020     0.00        0     13.4
    11/24/2014 04:15      7.8      338     18.0      325     60.6     60.8     60.3       16     1020     0.00        0     13.4
    11/24/2014 04:30      7.1      333     15.5      344     60.3     60.6     60.0       16     1020     0.00        0     13.4
    11/24/2014 04:45      6.8      330     15.7      285     60.0     60.3     59.7       16     1020     0.00        0     13.4
    11/24/2014 05:00      6.9      332     18.0        2     60.1     60.5     59.7       16     1020     0.00        0     13.4
    11/24/2014 05:15      7.4      334     21.5      336     59.8     60.1     59.4       17     1020     0.00        0     13.4
    11/24/2014 05:30      7.4      331     17.1      328     59.3     59.6     58.9       18     1020     0.00        0     13.4
    11/24/2014 05:45      6.8      331     13.8      311     58.9     59.2     58.5       19     1021     0.00        0     13.4
    11/24/2014 06:00      7.2      333     16.8      345     58.6     58.9     58.3       18     1021     0.00        0     13.4
    11/24/2014 06:15      7.4      335     16.6      331     58.8     58.9     58.6       17     1021     0.00        0     13.4
    11/24/2014 06:30      7.5      331     17.2      347     58.7     58.9     58.4       17     1021     0.00        1     13.4
    11/24/2014 06:45      7.4      335     16.7      345     58.5     58.9     58.3       18     1021     0.00        4     13.4
    11/24/2014 07:00      7.8      331     18.1        0     58.5     58.8     58.2       17     1021     0.00       19     13.4
    11/24/2014 07:15      7.7      334     16.1      325     59.2     59.8     58.6       16     1021     0.00       24     13.4
    11/24/2014 07:30      7.1      333     15.5      331     60.0     60.6     59.5       15     1021     0.00       41     13.4
    11/24/2014 07:45      7.1      328     16.4      316     61.0     61.6     60.5       14     1021     0.00       40     13.4
    11/24/2014 08:00      7.5      332     17.7      348     62.1     62.9     61.4       13     1022     0.00       36     13.4
    11/24/2014 08:15      6.0      339     19.1      339     62.8     63.4     62.5       13     1022     0.00       48     13.4
    11/24/2014 08:30      7.6      347     21.4      329     64.0     64.5     63.3       12     1022     0.00       52     13.4
    11/24/2014 08:45      8.2      345     18.6       12     64.8     65.3     64.2       12     1022     0.00       63     13.4
    11/24/2014 09:00      8.1      341     18.5      341     65.5     66.0     65.1       12     1022     0.00      280     13.3
    11/24/2014 09:15      7.8      347     19.0       25     66.3     66.7     65.9       12     1023     0.00       70     13.3
    11/24/2014 09:30      8.8      351     22.9        7     66.9     67.4     66.5       11     1023     0.00      325     13.3
    11/24/2014 09:45      8.2      350     22.0      329     67.8     68.5     67.2       11     1023     0.00      461     13.3
    11/24/2014 10:00      8.7      351     25.1      322     68.5     68.9     68.1       11     1023     0.00      486     13.2
    11/24/2014 10:15      8.2      351     19.5      351     69.1     69.4     68.6       10     1023     0.00      506     13.2
    11/24/2014 10:30      9.1      352     23.2      348     69.8     70.4     69.2       10     1023     0.00      532     13.2
    11/24/2014 10:45      8.0      353     20.4      336     71.0     71.5     70.3        9     1023     0.00      549     13.2
    11/24/2014 11:00      8.6      350     23.1      346     71.6     72.3     71.0        9     1023     0.00      567     13.2
    11/24/2014 11:15      7.1      354     18.7      354     72.3     72.8     72.0        9     1023     0.00      546     13.2
    11/24/2014 11:30      7.1      346     16.7      354     73.0     73.7     72.6        9     1022     0.00      575     13.2
    11/24/2014 11:45      8.0      337     17.7      350     72.8     73.2     72.5        9     1022     0.00      597     13.2
    11/24/2014 12:00      6.7      344     16.2      347     73.1     73.9     72.5        9     1022     0.00      594     13.2
    11/24/2014 12:15      6.8      346     16.9      354     73.8     74.4     73.4        8     1022     0.00      591     13.2
    11/24/2014 12:30      7.8      339     20.8        1     73.7     74.3     73.3        9     1022     0.00      580     13.1
    11/24/2014 12:45      6.4      336     14.9      340     74.5     75.5     74.0        8     1022     0.00      568     13.1
    11/24/2014 13:00      7.1      348     25.1      337     75.0     75.5     74.7        8     1021     0.00      553     13.1
    11/24/2014 13:15      6.3      344     17.1      319     75.2     75.8     74.7        8     1021     0.00      529     13.1
    11/24/2014 13:30      5.9      347     16.3      348     75.8     76.6     75.5        8     1021     0.00      508     13.1
    11/24/2014 13:45      6.5      350     17.1      335     76.0     76.6     75.7        8     1021     0.00      481     13.1
    11/24/2014 14:00      6.3      347     18.1      349     75.8     76.3     75.5        7     1021     0.00      451     13.1
    11/24/2014 14:15      7.5      348     20.4      337     75.8     76.3     75.0        8     1021     0.00      420     13.1
    11/24/2014 14:30      6.8      350     18.6      334     75.5     76.1     75.1        8     1021     0.00      384     13.1
    11/24/2014 14:45      5.8      347     14.9      337     75.5     75.9     75.2        8     1021     0.00      347     13.1
    11/24/2014 15:00      7.5      351     19.2      332     75.0     75.3     74.7        8     1021     0.00      307     13.1
    11/24/2014 15:15      6.4      357     16.4        0     74.8     75.1     74.6        8     1021     0.00      264     13.1
    11/24/2014 15:30      5.3      352     14.2       18     74.6     75.0     74.4        8     1021     0.00      220     13.1
    11/24/2014 15:45      6.5      353     17.5        0     74.1     74.5     73.8        8     1021     0.00      179     13.1
    11/24/2014 16:00      6.5      350     18.4      344     73.5     73.9     73.0        8     1021     0.00      137     13.1
    11/24/2014 16:15      7.5      351     20.3      340     72.8     73.3     72.4        9     1021     0.00       53     13.2
    11/24/2014 16:30      5.7      352     17.8      348     72.2     72.5     71.5        9     1021     0.00       16     13.2
    11/24/2014 16:45      6.4      349     15.2      335     71.4     71.8     70.9        9     1022     0.00       10     13.2
    11/24/2014 17:00      6.5      342     18.8        1     70.5     71.0     70.2        9     1022     0.00        3     13.3
    11/24/2014 17:15      6.1      343     12.9      341     70.1     70.5     69.8        9     1022     0.00        0     13.3
    11/24/2014 17:30      7.1      341     16.4      348     69.8     70.0     69.6        9     1022     0.00        0     13.3
    11/24/2014 17:45      7.1      345     21.0      335     69.5     69.8     69.2        9     1022     0.00        0     13.3
    11/24/2014 18:00      6.5      344     17.1      345     69.3     69.6     69.0        9     1022     0.00        0     13.3
    11/24/2014 18:15      5.4      347     16.8      343     69.1     69.4     68.7        9     1023     0.00        0     13.3
    11/24/2014 18:30      6.7      350     16.2      352     69.1     69.4     68.8        9     1023     0.00        0     13.3
    11/24/2014 18:45      7.6      347     16.8       28     69.2     69.5     68.9        9     1023     0.00        0     13.3
    11/24/2014 19:00      7.8      348     22.3      341     69.3     69.6     69.0        9     1023     0.00        0     13.3
    11/24/2014 19:15      6.2      349     15.5      340     68.8     69.2     68.4        9     1023     0.00        0     13.3
    11/24/2014 19:30      6.1      344     15.3      354     68.4     68.7     68.1        9     1024     0.00        0     13.3
    11/24/2014 19:45      5.7      349     16.9      355     68.2     68.4     67.9        9     1024     0.00        0     13.3
    11/24/2014 20:00      5.6      358     15.6      347     68.1     68.4     67.9        9     1024     0.00        0     13.3
    11/24/2014 20:15      5.8      351     12.8        5     68.0     68.3     67.8        9     1024     0.00        0     13.3
    11/24/2014 20:30      5.6      357     12.5       42     68.0     68.2     67.9        9     1024     0.00        0     13.3
    11/24/2014 20:45      6.0      359     16.7      351     68.1     68.4     67.7        9     1024     0.00        0     13.3
    11/24/2014 21:00      6.1      352     16.6        0     68.0     68.3     67.6        9     1024     0.00        0     13.3
    11/24/2014 21:15      6.8      350     16.4      345     67.6     67.8     67.3        9     1024     0.00        0     13.3
    11/24/2014 21:30      5.3      352     15.0       23     67.6     68.0     67.3        9     1024     0.00        0     13.3
    11/24/2014 21:45      6.2      350     17.4      335     67.6     67.8     67.3        9     1024     0.00        0     13.3
    11/24/2014 22:00      7.4      359     16.2      331     67.3     67.5     67.1        9     1025     0.00        0     13.3
    11/24/2014 22:15      7.2      350     18.6        1     67.1     67.4     66.9        9     1024     0.00        0     13.3
    11/24/2014 22:30      6.8      357     17.7        1     66.9     67.2     66.6        9     1025     0.00        0     13.3
    11/24/2014 22:45      5.4      350     14.4      351     66.5     66.7     66.2        9     1025     0.00        0     13.4
    11/24/2014 23:00      5.2      356     15.8      335     66.3     66.7     65.9        9     1025     0.00        0     13.4
    11/24/2014 23:15      4.9      347     14.1      341     66.7     67.1     66.4        8     1025     0.00        0     13.4
    11/24/2014 23:30      5.1      348     11.4      323     66.7     67.0     66.4        8     1025     0.00        0     13.4
    11/24/2014 23:45      4.2      341     11.4      346     66.5     67.2     65.8        9     1025     0.00        0     13.4
    11/25/2014 00:00      4.9      345     11.8       22     66.0     66.3     65.8        9     1025     0.00        0     13.4
    11/25/2014 00:15      6.5      346     16.0      335     66.3     66.7     65.8        9     1025     0.00        0     13.4
    11/25/2014 00:30      4.9      352     15.4      350     66.0     66.5     65.7        9     1025     0.00        0     13.4
    11/25/2014 00:45      3.8      358     10.2        3     65.6     66.0     65.1       10     1025     0.00        0     13.4
    11/25/2014 01:00      2.6      355      8.9      344     65.0     65.3     64.5       10     1025     0.00        0     13.4
    11/25/2014 01:15      2.3      347      8.6        5     64.2     64.7     63.5       10     1025     0.00        0     13.4
    11/25/2014 01:30      3.7      344      9.8      333     64.5     64.8     63.8       10     1026     0.00        0     13.4
    11/25/2014 01:45      3.9      348     10.3      346     64.6     65.0     64.3       10     1026     0.00        0     13.4
    11/25/2014 02:00      3.2      351      8.0        0     64.3     64.7     64.0       10     1026     0.00        0     13.4
    11/25/2014 02:15      2.6      355      7.4      347     63.9     64.2     63.6       10     1026     0.00        0     13.4
    11/25/2014 02:30      1.7       15      5.8        7     63.5     63.9     62.8       10     1026     0.00        0     13.4
    11/25/2014 02:45      0.3      262      2.7      260     59.5     63.1     57.2       16     1026     0.00        0     13.4
    11/25/2014 03:00      1.1      213      3.2      153     54.8     57.2     53.9       20     1026     0.00        0     13.4
    11/25/2014 03:15      0.8      276      2.6      289     53.3     54.5     52.1       23     1026     0.00        0     13.5
    11/25/2014 03:30      0.9      314      2.4      293     52.6     53.2     51.9       22     1026     0.00        0     13.5
    11/25/2014 03:45      0.2      281      2.1      249     51.8     53.0     51.0       23     1026     0.00        0     13.5
    11/25/2014 04:00      1.4      335      2.4      340     52.9     54.1     51.4       19     1026     0.00        0     13.5
    11/25/2014 04:15      0.0      339      1.4      332     52.1     54.1     50.3       24     1026     0.00        0     13.5
    11/25/2014 04:30      0.0        0      0.0       34     50.6     51.5     49.7       25     1026     0.00        0     13.5
    11/25/2014 04:45      0.5      145      3.8      154     49.4     49.8     48.8       27     1026     0.00        0     13.6
    11/25/2014 05:00      0.2      165      1.8      167     49.3     49.7     49.0       30     1026     0.00        0     13.6
    11/25/2014 05:15      0.5      329      2.1      330     49.1     49.3     48.9       28     1026     0.00        0     13.6
    11/25/2014 05:30      0.2      327      2.0      339     49.0     49.6     48.3       29     1027     0.00        0     13.6
    11/25/2014 05:45      0.4      335      1.8      340     48.7     49.1     48.3       30     1027     0.00        0     13.6
    11/25/2014 06:00      0.2      334      1.5      340     49.0     49.4     48.3       29     1027     0.00        0     13.6
    11/25/2014 06:15      0.0        0      0.0      343     48.5     49.1     47.9       31     1027     0.00        0     13.6
    11/25/2014 06:30      0.0        0      0.0      355     48.0     48.3     47.7       30     1027     0.00        1     13.6
    11/25/2014 06:45      0.0        0      0.0       12     48.3     48.6     48.0       31     1027     0.00        4     13.6
    11/25/2014 07:00      0.1       90      1.1       97     48.3     48.8     47.9       30     1027     0.00       15     13.6
    11/25/2014 07:15      0.1      343      1.8      347     48.8     49.4     48.4       30     1027     0.00       18     13.6
    11/25/2014 07:30      0.0      257      0.9      257     50.1     51.1     49.1       30     1027     0.00       37     13.6
    11/25/2014 07:45      0.0        0      0.0      244     52.6     53.8     50.9       24     1028     0.00       33     13.6
    11/25/2014 08:00      0.6      127      2.8      100     54.8     55.5     53.8       25     1028     0.00       34     13.6
    11/25/2014 08:15      0.3      125      2.0      102     55.7     56.3     55.4       25     1028     0.00       47     13.5
    11/25/2014 08:30      0.3      165      1.7      166     56.7     57.0     56.1       28     1028     0.00       48     13.5
    11/25/2014 08:45      0.3      169      2.5      166     57.9     58.6     56.8       23     1028     0.00       82     13.5
    11/25/2014 09:00      0.0        0      0.0      166     59.9     61.9     58.4       21     1028     0.00      271     13.4
    11/25/2014 09:15      0.1      244      1.6      231     63.5     65.0     61.9       14     1028     0.00       50     13.4
    11/25/2014 09:30      0.5      248      2.2      256     65.7     66.4     64.9       13     1028     0.00      336     13.3
    11/25/2014 09:45      1.3      200      3.4      207     66.7     67.2     66.2       13     1028     0.00      466     13.3
    11/25/2014 10:00      1.4      220      4.1      182     68.2     69.0     67.0       13     1028     0.00      494     13.3
    11/25/2014 10:15      3.9      196      6.6      192     68.0     69.0     67.3       12     1028     0.00      520     13.2
    11/25/2014 10:30      2.6      190      6.2      187     69.7     70.4     69.0       12     1027     0.00      543     13.2
    11/25/2014 10:45      1.4      211      4.2      184     71.1     71.6     70.4       11     1027     0.00      560     13.2
    11/25/2014 11:00      1.3      224      4.1      245     73.2     74.1     71.5        9     1027     0.00      576     13.1
    11/25/2014 11:15      2.0      199      5.1      203     74.5     75.3     73.8       10     1026     0.00      588     13.1
    11/25/2014 11:30      1.9      217      5.0      196     74.7     76.0     73.7        7     1026     0.00      594     13.1
    11/25/2014 11:45      2.0      303      7.2      234     77.8     78.6     76.0        6     1026     0.00      599     13.1
    11/25/2014 12:00      2.3      283      6.9      327     78.9     79.6     78.4        7     1025     0.00      597     13.1
    11/25/2014 12:15      2.7      292      6.9      290     78.7     79.3     78.3        6     1025     0.00      590     13.1
    11/25/2014 12:30      2.6      297      5.4      321     79.1     79.5     78.8        6     1025     0.00      581     13.1
    11/25/2014 12:45      3.3      326      9.1      324     79.5     79.9     79.1        6     1024     0.00      569     13.1
    11/25/2014 13:00      3.5      349      9.5        0     79.9     80.5     79.6        6     1024     0.00      552     13.1
    11/25/2014 13:15      5.1      358     11.8        1     80.1     80.7     79.7        5     1024     0.00      532     13.1
    11/25/2014 13:30      4.6      359     10.7      346     80.3     80.9     79.8        6     1024     0.00      508     13.1
    11/25/2014 13:45      3.7      355     10.4      340     81.1     81.6     80.4        6     1024     0.00      481     13.1
    11/25/2014 14:00      2.8      340      8.4       24     81.6     81.9     81.3        6     1023     0.00      450     13.1
    11/25/2014 14:15      3.4      330      9.8      344     81.8     82.1     81.4        6     1023     0.00      418     13.1
    11/25/2014 14:30      2.3      329      7.8      345     81.9     82.3     81.4        5     1023     0.00      382     13.1
    11/25/2014 14:45      3.0      331      8.3      323     81.7     82.0     81.4        5     1023     0.00      342     13.1
    11/25/2014 15:00      2.4      280      5.9      264     81.5     81.9     81.2        6     1023     0.00      303     13.1
    11/25/2014 15:15      1.9      307      8.0      323     81.5     82.0     80.9        6     1023     0.00      261     13.1
    11/25/2014 15:30      5.5      268     13.9      268     79.5     81.1     78.1        9     1023     0.00      217     13.1
    11/25/2014 15:45      5.2      273     10.5      238     77.4     78.2     76.8       10     1023     0.00      174     13.1
    11/25/2014 16:00      4.1      270      7.9      269     76.7     77.0     76.1       11     1023     0.00      132     13.1
    11/25/2014 16:15      4.7      268     10.1      267     75.3     76.2     74.5       12     1023     0.00       53     13.1
    11/25/2014 16:30      4.4      254      8.8      246     73.9     74.6     73.2       12     1023     0.00       15     13.2
    11/25/2014 16:45      3.1      256      7.4      258     72.8     73.5     71.9       14     1023     0.00        9     13.2
    11/25/2014 17:00      2.8      262      7.6      249     71.3     72.0     70.5       14     1023     0.00        3     13.2
    11/25/2014 17:15      1.2      251      4.3      241     69.8     70.8     68.4       16     1023     0.00        0     13.3
    11/25/2014 17:30      0.8      255      3.1      256     67.6     68.5     67.0       15     1023     0.00        0     13.3
    11/25/2014 17:45      0.3      308      1.7      302     67.0     67.4     66.5       16     1023     0.00        0     13.3
    11/25/2014 18:00      0.1      304      1.9      289     66.1     66.8     65.5       16     1023     0.00        0     13.3
    11/25/2014 18:15      1.0      333      3.7      340     65.4     65.9     65.1       14     1024     0.00        0     13.3
    11/25/2014 18:30      1.2      341      3.9       12     65.6     66.4     63.5       21     1024     0.00        0     13.3
    11/25/2014 18:45      0.0        0      0.0      271     62.8     63.5     62.3       17     1024     0.00        0     13.4
    11/25/2014 19:00      0.0        0      0.0      196     62.3     63.1     61.3       21     1024     0.00        0     13.4
    11/25/2014 19:15      0.1      262      1.8      293     61.4     61.6     61.2       21     1024     0.00        0     13.4
    11/25/2014 19:30      0.0        0      0.0      339     61.6     62.0     61.1       22     1024     0.00        0     13.4
    11/25/2014 19:45      0.2       94      1.8       91     59.9     61.2     58.9       24     1024     0.00        0     13.4
    11/25/2014 20:00      1.2      314      3.1      291     59.4     60.1     59.0       24     1024     0.00        0     13.4
    11/25/2014 20:15      0.3      129      1.9      129     58.6     59.5     58.0       25     1024     0.00        0     13.4
    11/25/2014 20:30      0.2      346      1.8      351     58.8     59.4     58.3       25     1024     0.00        0     13.4
    11/25/2014 20:45      0.0        0      0.0       11     58.6     58.8     58.2       26     1024     0.00        0     13.4
    11/25/2014 21:00      0.0        0      0.0      109     57.5     58.3     56.9       28     1024     0.00        0     13.4
    11/25/2014 21:15      0.0        0      0.0      328     56.5     57.2     55.2       32     1024     0.00        0     13.5
    11/25/2014 21:30      0.0      336      1.1      336     55.2     55.8     54.7       29     1024     0.00        0     13.5
    11/25/2014 21:45      0.6      329      2.1      331     55.8     56.2     55.4       29     1024     0.00        0     13.5
    11/25/2014 22:00      1.6      338      2.4      354     55.9     56.4     55.4       27     1024     0.00        0     13.5
    11/25/2014 22:15      1.2      341      2.9      351     56.5     56.8     56.0       26     1024     0.00        0     13.5
    11/25/2014 22:30      0.1      339      1.6      342     55.6     56.3     54.6       29     1024     0.00        0     13.5
    11/25/2014 22:45      0.0        0      0.0       88     54.2     54.8     53.8       31     1024     0.00        0     13.5
    11/25/2014 23:00      0.0      323      0.5      322     53.4     54.0     52.4       34     1024     0.00        0     13.5
    11/25/2014 23:15      0.0        0      0.0      312     52.2     52.7     51.7       34     1024     0.00        0     13.5
    11/25/2014 23:30      0.0      327      0.9      325     52.5     53.4     51.9       31     1024     0.00        0     13.5
    11/25/2014 23:45      0.3      340      1.7      337     53.1     53.5     52.9       32     1024     0.00        0     13.5
    11/26/2014 00:00      0.6      332      2.3      329     53.1     53.3     52.8       33     1024     0.00        0     13.5
    11/26/2014 00:15      0.3      335      1.6      340     52.9     53.3     52.4       33     1024     0.00        0     13.5
    11/26/2014 00:30      0.2      337      2.0      341     52.3     52.7     51.5       35     1023     0.00        0     13.5
    11/26/2014 00:45      0.0        0      0.0      314     51.2     51.8     50.8       35     1023     0.00        0     13.5
    11/26/2014 01:00      0.1      341      1.0      339     51.7     52.2     51.0       34     1023     0.00        0     13.5
    11/26/2014 01:15      0.0        0      0.0       47     51.0     51.9     50.2       36     1023     0.00        0     13.6
    11/26/2014 01:30      0.2      338      1.5      337     50.8     51.2     50.2       36     1023     0.00        0     13.6
    11/26/2014 01:45      0.2      336      1.9      330     50.6     51.0     50.4       37     1023     0.00        0     13.6
    11/26/2014 02:00      0.4      333      2.1      345     51.0     51.3     50.8       35     1023     0.00        0     13.6
    11/26/2014 02:15      0.6       83      3.2      142     50.4     51.2     49.7       34     1023     0.00        0     13.6
    11/26/2014 02:30      0.0        0      0.0      340     50.5     51.0     50.2       36     1023     0.00        0     13.6
    11/26/2014 02:45      0.1      345      1.2      339     50.4     50.7     50.1       38     1023     0.00        0     13.6
    11/26/2014 03:00      0.1      341      1.2      340     50.4     50.8     50.2       38     1023     0.00        0     13.6
    11/26/2014 03:15      0.1      336      1.1      336     50.2     50.8     49.6       37     1022     0.00        0     13.6
    11/26/2014 03:30      0.5      332      2.4      335     49.7     50.4     49.4       35     1022     0.00        0     13.6
    11/26/2014 03:45      0.5      342      1.8      345     50.4     50.7     50.0       34     1022     0.00        0     13.6
    11/26/2014 04:00      0.2      341      1.7      348     50.0     50.8     49.5       34     1022     0.00        0     13.6
    11/26/2014 04:15      0.6      343      1.9      344     50.0     50.5     49.6       35     1022     0.00        0     13.6
    11/26/2014 04:30      0.0      349      0.5      349     50.1     50.5     49.8       34     1022     0.00        0     13.6
    11/26/2014 04:45      0.0       44      0.9       46     50.2     50.5     49.8       35     1022     0.00        0     13.6
    11/26/2014 05:00      0.0        0      0.0        8     50.2     50.5     49.8       34     1022     0.00        0     13.6
    11/26/2014 05:15      0.0      336      1.4      337     49.3     50.1     48.8       34     1022     0.00        0     13.6
    11/26/2014 05:30      0.4      336      2.1      343     49.5     50.0     48.8       33     1022     0.00        0     13.6
    11/26/2014 05:45      0.4      339      3.1      349     49.7     50.0     49.2       34     1022     0.00        0     13.6
    11/26/2014 06:00      0.1        8      1.6       71     49.7     50.1     49.3       32     1022     0.00        0     13.6
    11/26/2014 06:15      0.2      335      1.9      338     50.8     51.4     49.9       31     1022     0.00        0     13.6
    11/26/2014 06:30      0.4      338      3.3      334     50.8     51.1     50.3       34     1022     0.00        1     13.6
    11/26/2014 06:45      0.1      347      1.1      345     49.8     50.4     49.5       32     1022     0.00        4     13.6
    11/26/2014 07:00      0.3      333      2.0      343     50.3     51.1     49.9       32     1022     0.00       12     13.6